Time;durP1;ratioP1;P1;durP2;ratioP2;P2;SDS_P1;SDS_P2;PMS_P1;PMS_P2;Temp;Humidity;BMP_temperature;BMP_pressure;BME280_temperature;BME280_humidity;BME280_pressure;Samples;Min_cycle;Max_cycle;Signal;HPM_P1;HPM_P2
2022/05/14 00:02:11;;;;;;;48.60;9.20;;;;;;;10.58;100.00;100358.13;4896512;29;20055;-82
2022/05/14 00:04:36;;;;;;;52.50;9.15;;;;;;;10.13;100.00;100277.25;4897212;29;20061;-83
2022/05/14 00:07:02;;;;;;;52.20;8.40;;;;;;;10.25;100.00;100313.25;4881258;29;20041;-82
2022/05/14 00:09:28;;;;;;;47.90;9.73;;;;;;;10.31;100.00;100300.88;4896765;29;20033;-81
2022/05/14 00:14:38;;;;;;;38.03;6.82;;;;;;;10.20;100.00;100310.38;4899969;29;20100;-83
2022/05/14 00:17:04;;;;;;;52.97;8.23;;;;;;;9.87;100.00;100248.56;4899267;29;20021;-82
2022/05/14 00:19:30;;;;;;;59.97;10.02;;;;;;;9.43;100.00;100187.41;4867702;29;20120;-83
2022/05/14 00:21:56;;;;;;;46.25;9.07;;;;;;;10.08;100.00;100275.22;4898029;29;20040;-83
2022/05/14 00:24:23;;;;;;;52.67;9.23;;;;;;;10.74;100.00;100387.28;4882657;29;20048;-83
2022/05/14 00:26:52;;;;;;;50.00;9.27;;;;;;;10.41;100.00;100320.09;4901544;29;21332;-83
2022/05/14 00:29:17;;;;;;;57.05;9.60;;;;;;;9.71;100.00;100219.44;4885322;29;20059;-83
2022/05/14 00:31:43;;;;;;;49.63;9.57;;;;;;;10.11;100.00;100273.97;4900091;29;20033;-83
2022/05/14 00:34:09;;;;;;;51.80;8.82;;;;;;;10.09;100.00;100260.72;4898820;29;20029;-83
2022/05/14 00:36:34;;;;;;;54.70;10.05;;;;;;;10.70;100.00;100348.38;4899124;29;20456;-83
2022/05/14 00:39:00;;;;;;;66.93;10.27;;;;;;;10.31;100.00;100290.94;4880643;29;20025;-82
2022/05/14 00:41:27;;;;;;;53.50;9.48;;;;;;;10.49;100.00;100309.09;4885269;29;20029;-83
2022/05/14 00:43:58;;;;;;;47.67;8.38;;;;;;;10.34;100.00;100300.44;4881087;29;20021;-84
2022/05/14 00:46:48;;;;;;;51.03;9.10;;;;;;;11.37;100.00;100447.78;4875848;29;20017;-84
2022/05/14 00:49:18;;;;;;;52.75;9.52;;;;;;;10.26;100.00;100288.03;4886850;29;20025;-83
2022/05/14 00:51:45;;;;;;;55.20;9.45;;;;;;;10.20;100.00;100267.34;4886525;29;20037;-85
2022/05/14 00:54:23;;;;;;;43.10;7.60;;;;;;;11.34;100.00;100437.44;4902359;29;20529;-84
2022/05/14 00:56:56;;;;;;;40.85;8.82;;;;;;;9.69;100.00;100190.09;4902865;29;20049;-84
2022/05/14 00:59:25;;;;;;;42.78;8.25;;;;;;;11.25;100.00;100445.72;4905155;29;20020;-84
2022/05/14 01:01:50;;;;;;;34.20;6.18;;;;;;;10.66;100.00;100365.97;4886720;29;20033;-84
2022/05/14 01:04:18;;;;;;;55.70;8.43;;;;;;;9.74;100.00;100219.84;4902938;29;20064;-84
2022/05/14 01:06:55;;;;;;;54.10;9.70;;;;;;;9.84;100.00;100233.69;4887011;29;20174;-84
2022/05/14 01:09:21;;;;;;;46.28;9.00;;;;;;;9.86;100.00;100238.84;4903652;29;20025;-85
2022/05/14 01:11:50;;;;;;;62.13;9.02;;;;;;;11.16;100.00;100447.03;4903602;29;20045;-84
2022/05/14 01:14:16;;;;;;;51.75;8.90;;;;;;;10.65;100.00;100382.31;4904296;29;20037;-84
2022/05/14 01:16:41;;;;;;;40.20;7.60;;;;;;;9.73;100.00;100245.03;4902973;29;20044;-85
2022/05/14 01:21:48;;;;;;;50.72;8.68;;;;;;;11.12;100.00;100447.63;5068331;23;20044;-82
2022/05/14 01:27:25;;;;;;;42.90;7.95;;;;;;;9.93;100.00;100268.41;4941068;29;20047;-84
2022/05/14 01:29:51;;;;;;;41.42;6.57;;;;;;;9.44;100.00;100194.44;4924863;29;20028;-84
2022/05/14 01:32:17;;;;;;;42.70;7.75;;;;;;;10.70;100.00;100402.19;4939423;29;20012;-84
2022/05/14 01:34:44;;;;;;;37.83;6.90;;;;;;;10.44;100.00;100357.31;4924622;29;20016;-84
2022/05/14 01:37:11;;;;;;;38.53;7.50;;;;;;;9.40;100.00;100196.69;4939953;29;20036;-85
2022/05/14 01:39:37;;;;;;;41.78;6.53;;;;;;;9.22;100.00;100178.53;4940509;29;20100;-84
2022/05/14 01:42:04;;;;;;;44.78;7.70;;;;;;;9.63;100.00;100256.22;4939712;29;20016;-84
2022/05/14 01:44:30;;;;;;;42.78;6.20;;;;;;;9.51;100.00;100233.69;4941586;29;20036;-84
2022/05/14 01:46:55;;;;;;;40.88;7.07;;;;;;;10.91;100.00;100448.72;4940466;29;20016;-84
2022/05/14 02:20:24;;;;;;;49.63;8.80;;;;;;;10.75;100.00;100464.28;5696496;23;20069;-85
2022/05/14 02:22:51;;;;;;;52.55;7.60;;;;;;;9.82;100.00;100316.34;4903531;29;20025;-84
2022/05/14 02:25:19;;;;;;;43.65;6.97;;;;;;;9.00;100.00;100201.22;4902866;29;20025;-85
2022/05/14 02:27:45;;;;;;;44.88;6.85;;;;;;;10.77;100.00;100464.91;4903189;29;20025;-84
2022/05/14 02:30:12;;;;;;;43.60;7.13;;;;;;;9.52;100.00;100261.38;4903436;29;20017;-85
2022/05/14 02:35:12;;;;;;;36.30;6.50;;;;;;;9.19;100.00;100203.09;5669486;23;20059;-85
2022/05/14 02:37:38;;;;;;;50.22;7.20;;;;;;;9.39;100.00;100238.03;4919172;29;20029;-83
2022/05/14 02:40:05;;;;;;;44.60;7.05;;;;;;;10.26;100.00;100400.97;4920293;29;20041;-84
2022/05/14 02:42:30;;;;;;;44.15;7.50;;;;;;;9.33;100.00;100233.47;4939114;29;20017;-85
2022/05/14 02:44:57;;;;;;;36.33;5.88;;;;;;;10.01;100.00;100319.28;4940389;29;20031;-84
2022/05/14 02:55:09;;;;;;;42.42;7.97;;;;;;;9.35;100.00;100232.25;5115717;23;20048;-83
2022/05/14 02:57:35;;;;;;;41.20;7.20;;;;;;;10.92;100.00;100478.13;4923681;29;20028;-83
2022/05/14 03:00:03;;;;;;;38.15;6.07;;;;;;;9.34;100.00;100217.16;4923591;29;20032;-84
2022/05/14 03:02:28;;;;;;;35.30;6.47;;;;;;;9.97;100.00;100312.66;4923448;29;20063;-84
2022/05/14 03:04:54;;;;;;;44.10;7.57;;;;;;;11.01;100.00;100476.88;4923919;29;20016;-84
2022/05/14 03:07:20;;;;;;;43.40;7.55;;;;;;;10.91;100.00;100460.31;4939346;29;20116;-84
2022/05/14 03:12:22;;;;;;;38.42;6.28;;;;;;;10.05;100.00;100325.88;5350595;23;20098;-84
2022/05/14 03:14:49;;;;;;;38.67;6.78;;;;;;;11.04;100.00;100510.63;4908289;29;20119;-85
2022/05/14 03:17:15;;;;;;;30.70;6.30;;;;;;;9.43;100.00;100236.56;4923404;29;20016;-84
2022/05/14 03:19:42;;;;;;;35.22;6.88;;;;;;;10.03;100.00;100346.75;4908369;29;20017;-84
2022/05/14 03:27:18;;;;;;;37.38;6.40;;;;;;;10.87;100.00;100477.94;5028409;23;20044;-84
2022/05/14 03:29:43;;;;;;;36.38;5.75;;;;;;;10.98;100.00;100479.97;4924310;29;20096;-84
2022/05/14 03:32:09;;;;;;;42.30;7.30;;;;;;;11.07;100.00;100498.63;4886951;29;20034;-83
2022/05/14 03:34:36;;;;;;;43.90;6.65;;;;;;;11.08;100.00;100498.41;4905424;29;20028;-84
2022/05/14 03:37:02;;;;;;;37.83;6.15;;;;;;;10.03;100.00;100355.66;5501942;23;20004;-84
2022/05/14 04:07:55;;;;;;;40.95;6.35;;;;;;;9.81;100.00;100306.66;5635865;23;20098;-85
2022/05/14 04:12:56;;;;;;;35.45;5.78;;;;;;;10.19;100.00;100351.72;5754173;23;20071;-84
2022/05/14 04:55:16;;;;;;;31.42;5.35;;;;;;;9.83;100.00;100296.53;5557696;23;20032;-85
2022/05/14 05:13:16;;;;;;;31.85;5.78;;;;;;;11.15;100.00;100482.22;5264888;23;20088;-85
2022/05/14 05:37:33;;;;;;;26.80;4.07;;;;;;;11.03;100.00;100337.50;5908743;23;20011;-84
2022/05/14 05:39:59;;;;;;;22.10;4.20;;;;;;;11.01;100.00;100331.47;4959041;29;20071;-84
2022/05/14 05:50:11;;;;;;;27.60;4.43;;;;;;;11.61;100.00;100387.75;5937096;23;20356;-81
2022/05/14 05:52:37;;;;;;;21.95;3.90;;;;;;;12.96;100.00;100622.25;4936469;29;20032;-85
2022/05/14 06:00:24;;;;;;;20.20;3.50;;;;;;;11.48;100.00;100358.19;5552466;23;20041;-84
2022/05/14 06:02:50;;;;;;;28.63;4.40;;;;;;;11.73;100.00;100407.59;4886070;29;20120;-82
2022/05/14 06:05:17;;;;;;;23.73;4.10;;;;;;;11.74;100.00;100376.91;5045214;23;20053;-83
2022/05/14 06:07:42;;;;;;;18.17;3.17;;;;;;;11.71;100.00;100388.09;5169638;23;20044;-84
2022/05/14 06:10:12;;;;;;;15.63;3.92;;;;;;;13.20;100.00;100639.50;4923599;29;20036;-84
2022/05/14 06:12:38;;;;;;;21.00;3.70;;;;;;;11.66;100.00;100371.78;4989699;23;20046;-79
2022/05/14 08:36:32;;;;;;;12.35;1.77;;;;;;;11.30;100.00;100582.47;5065995;23;20084;-82
2022/05/14 08:44:21;;;;;;;11.48;1.58;;;;;;;11.20;100.00;100584.78;5255551;23;20048;-83
2022/05/14 08:46:53;;;;;;;9.98;1.88;;;;;;;12.07;100.00;100741.81;4908296;29;20037;-84
2022/05/14 08:54:29;;;;;;;8.65;1.88;;;;;;;12.61;100.00;100867.47;5374138;23;20055;-84
2022/05/14 08:57:15;;;;;;;6.97;1.25;;;;;;;11.74;100.00;100715.69;4907155;29;20016;-84
2022/05/14 08:59:53;;;;;;;14.73;1.92;;;;;;;12.38;100.00;100798.63;4891271;29;20019;-84
2022/05/14 09:02:19;;;;;;;10.30;1.67;;;;;;;12.85;100.00;100866.00;5162670;23;20039;-82
2022/05/14 09:04:45;;;;;;;9.40;2.00;;;;;;;12.20;100.00;100783.09;4936946;29;20059;-84
2022/05/14 09:07:11;;;;;;;10.80;1.77;;;;;;;11.01;100.00;100614.19;4939121;29;20048;-83
2022/05/14 09:09:49;;;;;;;12.77;1.98;;;;;;;11.21;100.00;100633.03;4935496;29;20043;-83
2022/05/14 09:12:19;;;;;;;9.77;1.80;;;;;;;11.46;100.00;100667.44;5344762;23;20102;-85
2022/05/14 09:14:45;;;;;;;11.50;2.38;;;;;;;13.00;100.00;100908.94;4936181;29;20020;-83
2022/05/14 09:17:22;;;;;;;11.18;1.80;;;;;;;11.66;100.00;100705.16;4930727;29;20020;-84
2022/05/14 09:19:53;;;;;;;6.15;1.70;;;;;;;11.85;100.00;100738.53;4924429;29;20028;-82
2022/05/14 09:30:10;;;;;;;10.90;1.50;;;;;;;12.85;100.00;100922.72;5285516;23;20056;-83
2022/05/14 09:32:42;;;;;;;7.65;1.75;;;;;;;11.08;100.00;100659.94;4916632;29;20029;-85
2022/05/14 09:35:13;;;;;;;12.00;2.50;;;;;;;11.08;100.00;100646.50;4890068;29;20019;-85
2022/05/14 10:03:40;;;;;;;9.85;1.95;;;;;;;12.84;100.00;100912.91;5036045;23;20041;-82
2022/05/14 10:06:22;;;;;;;15.80;2.22;;;;;;;11.68;100.00;100728.13;5036547;23;20120;-84
2022/05/14 10:09:18;;;;;;;9.32;1.92;;;;;;;11.50;100.00;100685.66;4914025;29;20053;-84
2022/05/14 10:29:57;;;;;;;6.55;1.20;;;;;;;11.50;100.00;100703.69;5900601;23;20114;-83
2022/05/14 10:40:20;;;;;;;8.52;1.70;;;;;;;13.14;100.00;100968.13;5276367;23;20061;-83
2022/05/14 10:42:52;;;;;;;6.50;1.80;;;;;;;13.26;100.00;100962.94;4907574;29;20017;-83
2022/05/14 10:45:40;;;;;;;6.88;1.45;;;;;;;12.28;100.00;100821.66;4899418;29;20033;-84
2022/05/14 10:48:20;;;;;;;10.80;2.10;;;;;;;13.32;100.00;100986.41;4886201;29;20037;-84
2022/05/14 10:50:46;;;;;;;6.35;1.50;;;;;;;11.81;100.00;100734.56;4896932;29;20109;-82
2022/05/14 10:53:12;;;;;;;12.52;2.05;;;;;;;11.56;100.00;100723.59;4905393;29;20025;-83
2022/05/14 10:55:46;;;;;;;9.98;2.15;;;;;;;13.45;100.00;100990.94;4914508;29;20048;-84
2022/05/14 10:58:35;;;;;;;11.20;1.77;;;;;;;11.85;100.00;100727.75;4904187;29;20020;-83
2022/05/14 11:01:02;;;;;;;12.07;2.17;;;;;;;12.72;100.00;100853.34;4894012;29;20092;-83
2022/05/14 11:03:32;;;;;;;10.23;1.95;;;;;;;11.88;100.00;100754.28;4899883;29;20063;-83
2022/05/14 11:06:00;;;;;;;10.48;1.70;;;;;;;13.31;100.00;100992.84;4910120;29;20028;-82
2022/05/14 11:08:34;;;;;;;12.35;2.10;;;;;;;12.83;100.00;100911.28;4893593;29;20024;-81
2022/05/14 11:11:03;;;;;;;11.18;2.20;;;;;;;12.70;100.00;100914.81;4902293;29;20084;-81
2022/05/14 11:13:29;;;;;;;9.30;1.90;;;;;;;13.48;100.00;101012.13;4906867;29;20024;-80
2022/05/14 11:16:13;;;;;;;10.23;1.63;;;;;;;13.24;100.00;100975.81;4908738;29;20033;-81
2022/05/14 11:18:55;;;;;;;11.00;1.87;;;;;;;13.60;100.00;101028.50;4882807;29;20028;-82
2022/05/14 11:21:44;;;;;;;13.48;2.35;;;;;;;13.54;100.00;101018.53;4904686;29;20303;-81
2022/05/14 11:24:14;;;;;;;11.23;1.90;;;;;;;13.68;100.00;101030.16;4888021;29;20028;-81
2022/05/14 11:26:59;;;;;;;13.60;2.40;;;;;;;13.61;100.00;101039.13;4888612;29;20064;-81
2022/05/14 11:29:28;;;;;;;14.35;2.65;;;;;;;13.59;100.00;101019.56;4889053;29;20032;-81
2022/05/14 11:32:02;;;;;;;13.32;2.50;;;;;;;13.70;100.00;101030.75;4890462;29;20094;-81
2022/05/14 11:34:28;;;;;;;12.68;2.45;;;;;;;13.27;100.00;101020.50;4908037;29;20052;-82
2022/05/14 11:36:57;;;;;;;10.63;2.28;;;;;;;13.55;100.00;101042.69;4889478;29;20036;-81
2022/05/14 11:39:24;;;;;;;12.00;1.95;;;;;;;13.60;100.00;101058.25;4905021;29;20048;-81
2022/05/14 11:42:10;;;;;;;9.85;1.70;;;;;;;13.46;100.00;101079.09;4904934;29;20079;-81
2022/05/14 11:44:44;;;;;;;15.65;2.45;;;;;;;13.32;100.00;101047.72;4888211;29;20059;-81
2022/05/14 11:47:54;;;;;;;11.70;2.00;;;;;;;13.23;100.00;101049.78;4904204;29;20114;-81
2022/05/14 11:50:26;;;;;;;11.80;2.25;;;;;;;13.19;100.00;101053.13;4870904;29;20036;-81
2022/05/14 11:53:24;;;;;;;10.88;2.35;;;;;;;13.16;100.00;101057.91;4905138;29;20370;-80
2022/05/14 11:55:55;;;;;;;8.75;1.60;;;;;;;13.21;100.00;101072.66;4902641;29;20131;-82
2022/05/14 11:58:46;;;;;;;13.93;2.20;;;;;;;13.47;100.00;101090.72;4902576;29;20025;-81
2022/05/14 12:01:30;;;;;;;8.80;1.83;;;;;;;13.50;100.00;101090.31;4903989;29;20031;-80
2022/05/14 12:04:00;;;;;;;16.50;2.70;;;;;;;13.53;100.00;101092.59;4900347;29;20024;-82
2022/05/14 12:06:48;;;;;;;8.77;2.05;;;;;;;13.58;100.00;101104.44;4891000;29;20033;-81
2022/05/14 12:09:19;;;;;;;13.40;2.40;;;;;;;13.66;100.00;101100.66;4905055;29;20096;-82
2022/05/14 12:12:03;;;;;;;13.90;2.53;;;;;;;13.65;100.00;101092.78;4908060;29;20084;-81
2022/05/14 12:14:34;;;;;;;11.03;2.47;;;;;;;13.37;100.00;101099.25;4901370;29;20032;-82
2022/05/14 12:17:02;;;;;;;14.02;2.53;;;;;;;13.40;100.00;101115.06;4907649;29;20041;-82
2022/05/14 12:19:33;;;;;;;13.35;2.22;;;;;;;13.42;100.00;101115.69;4898632;29;20037;-81
2022/05/14 12:22:15;;;;;;;11.30;1.90;;;;;;;13.19;100.00;101104.47;4905812;29;20032;-80
2022/05/14 12:25:01;;;;;;;10.38;1.92;;;;;;;13.29;100.00;101110.31;4908800;29;20070;-81
2022/05/14 12:27:29;;;;;;;12.93;2.40;;;;;;;13.56;100.00;101103.81;4898742;29;20539;-80
2022/05/14 12:30:02;;;;;;;8.73;2.28;;;;;;;13.65;100.00;101111.72;4902821;29;20451;-80
2022/05/14 12:35:20;;;;;;;8.75;2.25;;;;;;;13.67;100.00;101125.84;4900431;29;20039;-80
2022/05/14 12:37:46;;;;;;;9.65;2.00;;;;;;;13.70;100.00;101134.34;4899321;29;20032;-79
2022/05/14 12:40:35;;;;;;;25.02;3.45;;;;;;;13.84;100.00;101137.84;4925076;29;20087;-81
2022/05/14 12:43:04;;;;;;;13.38;2.33;;;;;;;13.65;100.00;101130.63;4916356;29;20377;-82
2022/05/14 12:45:38;;;;;;;15.32;2.63;;;;;;;13.75;100.00;101129.16;4916927;29;20051;-81
2022/05/14 12:48:04;;;;;;;13.80;2.83;;;;;;;13.59;100.00;101138.53;4912076;29;20525;-81
2022/05/14 12:50:32;;;;;;;16.50;3.03;;;;;;;13.55;100.00;101142.72;4907205;29;20039;-81
2022/05/14 12:53:07;;;;;;;12.32;2.60;;;;;;;13.64;100.00;101148.72;4890810;29;20032;-81
2022/05/14 12:55:39;;;;;;;17.85;3.58;;;;;;;13.81;100.00;101146.41;4922943;29;20110;-81
2022/05/14 12:58:06;;;;;;;19.30;3.35;;;;;;;13.75;100.00;101141.84;4927211;29;20024;-81
2022/05/14 13:00:35;;;;;;;9.90;2.65;;;;;;;13.73;100.00;101146.63;4907597;29;20043;-81
2022/05/14 13:03:41;;;;;;;18.63;3.17;;;;;;;13.86;100.00;101168.22;4908962;29;20031;-81
2022/05/14 13:06:19;;;;;;;15.05;2.67;;;;;;;13.66;100.00;101143.09;4926540;29;20036;-82
2022/05/14 13:08:49;;;;;;;18.27;2.95;;;;;;;13.60;100.00;101118.56;4925293;29;20042;-81
2022/05/14 13:11:20;;;;;;;18.85;3.63;;;;;;;13.72;100.00;101137.69;4926644;29;20446;-81
2022/05/14 13:13:48;;;;;;;19.92;3.67;;;;;;;13.55;100.00;101153.53;4922380;29;20375;-81
2022/05/14 13:16:22;;;;;;;19.75;2.95;;;;;;;13.58;100.00;101150.41;4908146;29;20549;-81
2022/05/14 13:18:55;;;;;;;18.35;3.40;;;;;;;13.38;100.00;101172.06;4907984;29;20050;-82
2022/05/14 13:21:35;;;;;;;19.38;3.53;;;;;;;13.49;100.00;101180.56;4911372;29;20115;-82
2022/05/14 13:24:05;;;;;;;18.90;2.97;;;;;;;13.59;100.00;101184.50;4933390;29;20032;-81
2022/05/14 13:26:51;;;;;;;18.20;4.10;;;;;;;13.69;100.00;101169.72;4909884;29;20024;-80
2022/05/14 13:29:25;;;;;;;17.80;3.03;;;;;;;13.90;100.00;101190.28;4924924;29;20064;-81
2022/05/14 13:32:02;;;;;;;17.52;3.13;;;;;;;13.73;100.00;101201.53;4928408;29;20342;-81
2022/05/14 13:37:37;;;;;;;18.20;3.03;;;;;;;13.42;100.00;101180.56;4910727;29;20076;-81
2022/05/14 13:40:18;;;;;;;17.20;3.10;;;;;;;13.29;100.00;101167.88;4911280;29;20439;-81
2022/05/14 13:42:49;;;;;;;23.27;4.20;;;;;;;13.35;100.00;101193.25;4929637;29;20446;-82
2022/05/14 13:45:22;;;;;;;16.48;3.33;;;;;;;13.39;100.00;101192.63;4932930;29;20012;-82
2022/05/14 13:47:51;;;;;;;15.80;3.10;;;;;;;13.23;100.00;101197.59;4928814;29;20036;-82
2022/05/14 13:50:38;;;;;;;18.17;3.53;;;;;;;12.92;100.00;101151.22;4925306;29;20045;-83
2022/05/14 13:53:05;;;;;;;17.80;3.58;;;;;;;13.07;100.00;101174.50;4916467;29;20036;-83
2022/05/14 13:55:32;;;;;;;21.63;3.78;;;;;;;13.32;100.00;101197.22;4920337;29;20048;-83
2022/05/14 13:58:20;;;;;;;23.40;4.05;;;;;;;13.19;100.00;101194.47;4935087;29;20028;-82
2022/05/14 14:00:53;;;;;;;22.23;3.85;;;;;;;13.28;100.00;101204.06;4936337;29;20040;-83
2022/05/14 14:03:25;;;;;;;16.23;3.05;;;;;;;13.48;100.00;101204.06;4933719;29;20034;-83
2022/05/14 14:05:51;;;;;;;19.35;3.50;;;;;;;13.33;100.00;101171.00;4935299;29;20028;-83
2022/05/14 14:08:26;;;;;;;19.85;3.75;;;;;;;13.52;100.00;101204.50;4938967;29;20033;-84
2022/05/14 14:10:54;;;;;;;16.58;2.95;;;;;;;13.46;100.00;101216.13;4939388;29;20032;-84
2022/05/14 14:13:20;;;;;;;12.80;2.83;;;;;;;13.35;100.00;101185.16;4939620;29;20096;-84
2022/05/14 14:15:45;;;;;;;16.58;3.20;;;;;;;13.44;100.00;101208.22;4937020;29;20067;-82
2022/05/14 14:18:11;;;;;;;25.98;3.75;;;;;;;13.54;100.00;101187.03;5044051;23;20049;-81
2022/05/14 14:20:41;;;;;;;21.75;3.92;;;;;;;13.35;100.00;101198.66;4873363;29;20112;-84
2022/05/14 14:23:13;;;;;;;18.73;3.40;;;;;;;12.60;100.00;101036.72;5456446;23;20737;-81
2022/05/14 14:25:40;;;;;;;18.80;3.58;;;;;;;13.57;100.00;101201.97;4909778;29;20112;-80
2022/05/14 14:28:10;;;;;;;23.35;4.15;;;;;;;13.66;100.00;101211.53;4904106;29;20032;-79
2022/05/14 14:30:37;;;;;;;21.67;3.80;;;;;;;13.63;100.00;101218.19;4881554;29;20103;-79
2022/05/14 14:33:02;;;;;;;23.10;3.47;;;;;;;13.55;100.00;101204.91;4903068;29;20098;-82
2022/05/14 14:35:28;;;;;;;20.73;3.75;;;;;;;13.66;100.00;101233.16;4869912;29;20053;-79
2022/05/14 14:37:53;;;;;;;23.17;4.13;;;;;;;13.60;100.00;101218.59;4875046;29;20028;-81
2022/05/14 14:40:18;;;;;;;17.50;3.38;;;;;;;13.60;100.00;101242.94;4878501;29;20053;-81
2022/05/14 14:42:44;;;;;;;21.92;3.80;;;;;;;13.71;100.00;101209.06;4888296;29;20037;-78
2022/05/14 14:45:11;;;;;;;24.88;4.55;;;;;;;13.82;100.00;101235.44;4923203;29;20028;-79
2022/05/14 14:47:48;;;;;;;22.95;4.22;;;;;;;13.77;100.00;101231.69;4901056;29;20035;-78
2022/05/14 14:50:15;;;;;;;28.20;4.85;;;;;;;13.76;100.00;101222.75;4897066;29;20036;-79
2022/05/14 14:52:40;;;;;;;26.23;3.75;;;;;;;13.97;100.00;101212.72;4891263;29;20028;-80
2022/05/14 14:55:06;;;;;;;24.10;4.60;;;;;;;13.95;100.00;101221.06;4902657;29;20028;-82
2022/05/14 14:57:32;;;;;;;21.50;3.63;;;;;;;14.04;100.00;101227.94;4891867;29;20041;-80
2022/05/14 14:59:58;;;;;;;22.25;3.83;;;;;;;14.06;100.00;101238.53;4889665;29;20034;-81
2022/05/14 15:02:31;;;;;;;21.50;3.60;;;;;;;14.03;100.00;101245.19;4896437;29;20123;-80
2022/05/14 15:05:07;;;;;;;24.35;4.38;;;;;;;14.01;100.00;101214.81;4910809;29;20032;-79
2022/05/14 15:07:34;;;;;;;20.27;3.67;;;;;;;13.85;100.00;101193.63;4894623;29;20033;-79
2022/05/14 15:10:01;;;;;;;20.55;3.83;;;;;;;14.14;100.00;101221.22;4900512;29;20367;-79
2022/05/14 15:12:28;;;;;;;23.15;3.67;;;;;;;14.24;100.00;101248.72;4901003;29;20051;-81
2022/05/14 15:14:53;;;;;;;17.35;2.70;;;;;;;14.15;100.00;101231.03;4888398;29;20152;-80
2022/05/14 15:17:19;;;;;;;21.10;4.82;;;;;;;14.09;100.00;101251.63;4876703;29;20088;-81
2022/05/14 15:19:44;;;;;;;27.80;4.72;;;;;;;14.14;100.00;101245.56;4894229;29;20037;-80
2022/05/14 15:22:11;;;;;;;19.38;3.88;;;;;;;14.16;100.00;101249.75;4890212;29;20028;-83
2022/05/14 15:24:37;;;;;;;19.73;3.80;;;;;;;14.32;100.00;101252.00;4899495;29;20506;-82
2022/05/14 15:27:03;;;;;;;28.73;4.15;;;;;;;14.04;100.00;101214.41;4892150;29;20124;-81
2022/05/14 15:29:28;;;;;;;19.63;4.30;;;;;;;14.06;100.00;101220.41;4888390;29;20107;-81
2022/05/14 15:32:12;;;;;;;22.38;4.07;;;;;;;14.32;100.00;101238.47;5170678;23;20416;-80
2022/05/14 15:34:38;;;;;;;13.07;3.55;;;;;;;14.20;100.00;101233.91;4889662;29;20111;-80
2022/05/14 15:37:04;;;;;;;24.23;4.65;;;;;;;14.30;100.00;101239.72;4856686;29;20056;-82
2022/05/14 15:39:29;;;;;;;18.58;3.65;;;;;;;14.02;100.00;101216.47;4869740;29;20140;-79
2022/05/14 15:42:03;;;;;;;20.60;4.07;;;;;;;13.78;100.00;101198.22;4857217;29;20033;-82
2022/05/14 15:44:30;;;;;;;24.67;4.27;;;;;;;14.17;100.00;101250.56;4892159;29;20367;-84
2022/05/14 15:47:00;;;;;;;22.65;3.85;;;;;;;14.12;100.00;101253.09;4883855;29;20021;-79
2022/05/14 15:52:01;;;;;;;31.05;4.70;;;;;;;13.96;100.00;101233.56;4992406;23;20051;-82
2022/05/14 15:54:29;;;;;;;17.98;3.38;;;;;;;13.99;100.00;101227.72;4933205;29;20115;-81
2022/05/14 15:56:56;;;;;;;18.80;3.38;;;;;;;14.05;100.00;101256.66;4926179;29;20060;-78
2022/05/14 15:59:22;;;;;;;22.38;4.10;;;;;;;14.16;100.00;101263.28;4891577;29;20054;-79
2022/05/14 16:01:47;;;;;;;24.25;4.38;;;;;;;14.17;100.00;101264.09;4904179;29;20103;-79
2022/05/14 16:04:13;;;;;;;17.25;2.92;;;;;;;14.08;100.00;101248.09;4905762;29;20050;-79
2022/05/14 16:06:38;;;;;;;23.52;4.00;;;;;;;14.12;100.00;101259.34;4902861;29;20107;-79
2022/05/14 16:09:05;;;;;;;25.85;4.60;;;;;;;14.36;100.00;101246.16;4892302;29;20099;-82
2022/05/14 16:16:59;;;;;;;17.63;3.72;;;;;;;14.55;100.00;101229.03;4905956;29;20046;-81
2022/05/14 16:19:24;;;;;;;20.08;4.28;;;;;;;14.33;100.00;101223.03;4907254;29;20020;-81
2022/05/14 16:21:50;;;;;;;23.05;4.25;;;;;;;14.29;100.00;101251.59;4903186;29;20089;-79
2022/05/14 16:24:15;;;;;;;21.60;3.63;;;;;;;14.43;100.00;101261.31;4901201;29;20047;-78
2022/05/14 16:26:41;;;;;;;25.73;3.58;;;;;;;14.43;100.00;101249.66;4902109;29;20696;-79
2022/05/14 16:29:10;;;;;;;19.98;4.00;;;;;;;14.40;100.00;101240.09;4870468;29;20064;-79
2022/05/14 16:31:37;;;;;;;25.40;4.35;;;;;;;14.54;100.00;101263.41;4919753;29;20032;-79
2022/05/14 16:34:03;;;;;;;21.88;4.03;;;;;;;14.47;100.00;101249.03;4906529;29;20051;-79
2022/05/14 16:36:29;;;;;;;22.10;4.32;;;;;;;14.54;100.00;101263.41;4921236;29;20036;-81
2022/05/14 16:38:58;;;;;;;23.65;4.20;;;;;;;14.30;100.00;101248.69;4912331;29;20107;-81
2022/05/14 16:41:24;;;;;;;20.70;4.20;;;;;;;14.24;100.00;101268.47;4910844;29;20119;-82
2022/05/14 16:43:49;;;;;;;18.00;3.25;;;;;;;14.13;100.00;101258.28;4925935;29;20040;-83
2022/05/14 16:46:15;;;;;;;20.55;3.78;;;;;;;14.01;100.00;101268.13;4895922;29;20462;-82
2022/05/14 16:48:44;;;;;;;25.73;4.40;;;;;;;13.95;100.00;101256.25;4910913;29;20076;-80
2022/05/14 16:51:10;;;;;;;22.33;4.60;;;;;;;14.06;100.00;101266.41;4914225;29;20080;-81
2022/05/14 16:53:39;;;;;;;28.55;5.45;;;;;;;13.70;100.00;101239.00;4879451;29;20028;-81
2022/05/14 16:56:33;;;;;;;17.70;3.42;;;;;;;13.63;100.00;101239.81;4889666;29;20028;-82
2022/05/14 16:58:59;;;;;;;24.67;4.47;;;;;;;13.74;100.00;101269.97;4884112;29;20044;-82
2022/05/14 17:01:24;;;;;;;16.13;3.42;;;;;;;13.65;100.00;101279.38;4874240;29;20036;-82
2022/05/14 17:03:49;;;;;;;26.23;4.55;;;;;;;13.74;100.00;101275.38;4902447;29;20340;-81
2022/05/14 17:06:15;;;;;;;22.20;4.13;;;;;;;13.89;100.00;101273.31;4883262;29;20056;-80
2022/05/14 17:08:41;;;;;;;21.65;4.18;;;;;;;13.90;100.00;101293.91;4889386;29;20447;-80
2022/05/14 17:11:07;;;;;;;22.83;3.45;;;;;;;14.02;100.00;101278.72;4907241;29;20028;-81
2022/05/14 17:13:34;;;;;;;22.52;4.22;;;;;;;13.89;100.00;101284.13;4904697;29;20507;-80
2022/05/14 17:15:59;;;;;;;21.25;5.10;;;;;;;14.05;100.00;101277.47;4870854;29;20103;-80
2022/05/14 17:18:25;;;;;;;17.17;3.78;;;;;;;13.66;100.00;101262.91;4899373;29;20116;-78
2022/05/14 17:20:52;;;;;;;11.50;2.58;;;;;;;13.71;100.00;101290.19;4882660;29;20032;-79
2022/05/14 17:23:18;;;;;;;18.38;3.92;;;;;;;13.75;100.00;101283.31;4881490;29;20438;-79
2022/05/14 17:25:43;;;;;;;18.75;3.47;;;;;;;13.85;100.00;101297.25;4867828;29;20032;-81
2022/05/14 17:28:10;;;;;;;20.83;4.05;;;;;;;13.99;100.00;101300.78;4901703;29;20025;-79
2022/05/14 17:30:37;;;;;;;13.95;3.60;;;;;;;12.42;100.00;101095.91;5042511;23;20075;-84
2022/05/14 17:33:07;;;;;;;23.08;3.35;;;;;;;13.67;100.00;101293.50;5096751;23;20083;-80
2022/05/14 17:35:34;;;;;;;19.20;3.58;;;;;;;13.74;100.00;101302.44;4907243;29;20103;-82
2022/05/14 17:40:44;;;;;;;21.77;4.10;;;;;;;13.54;100.00;101289.75;4885016;29;20052;-79
2022/05/14 17:43:09;;;;;;;14.35;3.40;;;;;;;13.55;100.00;101310.34;4878864;29;20645;-79
2022/05/14 17:45:36;;;;;;;21.88;3.95;;;;;;;13.55;100.00;101320.34;4896533;29;20073;-80
2022/05/14 17:48:03;;;;;;;19.08;3.65;;;;;;;13.42;100.00;101296.00;4903746;29;20024;-80
2022/05/14 17:50:30;;;;;;;25.30;4.93;;;;;;;13.46;100.00;101303.47;4881427;29;20502;-80
2022/05/14 17:52:56;;;;;;;23.42;3.80;;;;;;;13.39;100.00;101310.75;4899291;29;20033;-79
2022/05/14 17:55:23;;;;;;;23.45;4.70;;;;;;;13.35;100.00;101313.03;4897160;29;20340;-79
2022/05/14 17:57:53;;;;;;;17.50;3.65;;;;;;;13.25;100.00;101309.06;4913059;29;20092;-79
2022/05/14 18:00:24;;;;;;;19.52;3.75;;;;;;;13.01;100.00;101292.31;4899581;29;20021;-80
2022/05/14 18:02:50;;;;;;;23.27;4.18;;;;;;;13.07;100.00;101294.19;4902928;29;20055;-80
2022/05/14 18:05:18;;;;;;;22.35;4.05;;;;;;;13.06;100.00;101311.44;4885421;29;20443;-79
2022/05/14 18:07:43;;;;;;;17.98;3.42;;;;;;;12.84;100.00;101278.31;4902411;29;20029;-81
2022/05/14 18:10:18;;;;;;;19.05;3.60;;;;;;;12.89;100.00;101310.16;4897383;29;20056;-79